sensor_id;sensor_type;location;lat;lon;timestamp;P1;durP1;ratioP1;P2;durP2;ratioP2
6205;SDS011;3136;48.788;9.772;2024-02-28T00:02:09;27.17;;;18.23;;
6205;SDS011;3136;48.788;9.772;2024-02-28T00:04:34;28.30;;;18.17;;
6205;SDS011;3136;48.788;9.772;2024-02-28T00:07:00;28.23;;;18.27;;
6205;SDS011;3136;48.788;9.772;2024-02-28T00:09:26;27.53;;;17.70;;
6205;SDS011;3136;48.788;9.772;2024-02-28T00:11:51;31.13;;;18.90;;
6205;SDS011;3136;48.788;9.772;2024-02-28T00:14:17;31.17;;;19.67;;
6205;SDS011;3136;48.788;9.772;2024-02-28T00:16:43;30.00;;;18.17;;
6205;SDS011;3136;48.788;9.772;2024-02-28T00:19:10;31.83;;;18.50;;
6205;SDS011;3136;48.788;9.772;2024-02-28T00:21:42;29.50;;;17.77;;
6205;SDS011;3136;48.788;9.772;2024-02-28T00:24:07;30.53;;;18.53;;
6205;SDS011;3136;48.788;9.772;2024-02-28T00:26:33;30.00;;;18.67;;
6205;SDS011;3136;48.788;9.772;2024-02-28T00:28:59;27.17;;;17.27;;
6205;SDS011;3136;48.788;9.772;2024-02-28T00:31:25;26.73;;;15.47;;
6205;SDS011;3136;48.788;9.772;2024-02-28T00:33:50;22.63;;;14.40;;
6205;SDS011;3136;48.788;9.772;2024-02-28T00:36:16;21.90;;;14.77;;
6205;SDS011;3136;48.788;9.772;2024-02-28T00:38:42;30.43;;;18.70;;
6205;SDS011;3136;48.788;9.772;2024-02-28T00:41:07;30.07;;;17.73;;
6205;SDS011;3136;48.788;9.772;2024-02-28T00:43:34;32.03;;;18.87;;
6205;SDS011;3136;48.788;9.772;2024-02-28T00:45:59;27.23;;;17.50;;
6205;SDS011;3136;48.788;9.772;2024-02-28T00:48:25;30.23;;;18.40;;
6205;SDS011;3136;48.788;9.772;2024-02-28T00:50:51;28.73;;;18.13;;
6205;SDS011;3136;48.788;9.772;2024-02-28T00:53:17;28.40;;;17.77;;
6205;SDS011;3136;48.788;9.772;2024-02-28T00:55:43;29.87;;;18.93;;
6205;SDS011;3136;48.788;9.772;2024-02-28T00:58:09;29.67;;;18.23;;
6205;SDS011;3136;48.788;9.772;2024-02-28T01:00:35;29.83;;;18.07;;
6205;SDS011;3136;48.788;9.772;2024-02-28T01:03:01;32.00;;;18.33;;
6205;SDS011;3136;48.788;9.772;2024-02-28T01:05:30;32.83;;;19.10;;
6205;SDS011;3136;48.788;9.772;2024-02-28T01:07:55;28.53;;;17.57;;
6205;SDS011;3136;48.788;9.772;2024-02-28T01:10:21;30.47;;;17.17;;
6205;SDS011;3136;48.788;9.772;2024-02-28T01:12:47;30.77;;;18.00;;
6205;SDS011;3136;48.788;9.772;2024-02-28T01:15:13;30.67;;;16.93;;
6205;SDS011;3136;48.788;9.772;2024-02-28T01:17:38;26.57;;;15.77;;
6205;SDS011;3136;48.788;9.772;2024-02-28T01:20:04;30.60;;;16.90;;
6205;SDS011;3136;48.788;9.772;2024-02-28T01:22:32;30.97;;;17.43;;
6205;SDS011;3136;48.788;9.772;2024-02-28T01:24:58;27.80;;;16.23;;
6205;SDS011;3136;48.788;9.772;2024-02-28T01:27:23;28.23;;;16.27;;
6205;SDS011;3136;48.788;9.772;2024-02-28T01:29:49;28.67;;;16.70;;
6205;SDS011;3136;48.788;9.772;2024-02-28T01:32:14;27.73;;;15.90;;
6205;SDS011;3136;48.788;9.772;2024-02-28T01:34:40;29.80;;;17.80;;
6205;SDS011;3136;48.788;9.772;2024-02-28T01:37:06;32.20;;;17.13;;
6205;SDS011;3136;48.788;9.772;2024-02-28T01:39:31;32.53;;;18.03;;
6205;SDS011;3136;48.788;9.772;2024-02-28T01:41:57;30.80;;;17.50;;
6205;SDS011;3136;48.788;9.772;2024-02-28T01:44:22;34.10;;;17.60;;
6205;SDS011;3136;48.788;9.772;2024-02-28T01:46:48;32.30;;;18.23;;
6205;SDS011;3136;48.788;9.772;2024-02-28T01:49:14;34.50;;;19.30;;
6205;SDS011;3136;48.788;9.772;2024-02-28T01:51:41;32.70;;;17.60;;
6205;SDS011;3136;48.788;9.772;2024-02-28T01:54:07;34.50;;;17.73;;
6205;SDS011;3136;48.788;9.772;2024-02-28T01:56:33;30.83;;;17.57;;
6205;SDS011;3136;48.788;9.772;2024-02-28T01:58:59;31.20;;;16.93;;
6205;SDS011;3136;48.788;9.772;2024-02-28T02:01:26;33.57;;;17.63;;
6205;SDS011;3136;48.788;9.772;2024-02-28T02:03:53;28.67;;;17.37;;
6205;SDS011;3136;48.788;9.772;2024-02-28T02:06:19;28.87;;;17.00;;
6205;SDS011;3136;48.788;9.772;2024-02-28T02:08:45;30.70;;;17.20;;
6205;SDS011;3136;48.788;9.772;2024-02-28T02:11:12;28.60;;;17.03;;
6205;SDS011;3136;48.788;9.772;2024-02-28T02:13:49;29.40;;;16.93;;
6205;SDS011;3136;48.788;9.772;2024-02-28T02:16:16;30.80;;;18.13;;
6205;SDS011;3136;48.788;9.772;2024-02-28T02:18:42;31.33;;;18.13;;
6205;SDS011;3136;48.788;9.772;2024-02-28T02:21:08;34.57;;;19.70;;
6205;SDS011;3136;48.788;9.772;2024-02-28T02:23:36;32.67;;;17.77;;
6205;SDS011;3136;48.788;9.772;2024-02-28T02:26:06;30.03;;;17.80;;
6205;SDS011;3136;48.788;9.772;2024-02-28T02:28:32;31.70;;;17.97;;
6205;SDS011;3136;48.788;9.772;2024-02-28T02:30:57;27.23;;;17.63;;
6205;SDS011;3136;48.788;9.772;2024-02-28T02:33:23;30.77;;;17.13;;
6205;SDS011;3136;48.788;9.772;2024-02-28T02:35:49;30.17;;;17.53;;
6205;SDS011;3136;48.788;9.772;2024-02-28T02:38:14;30.10;;;18.03;;
6205;SDS011;3136;48.788;9.772;2024-02-28T02:40:40;30.50;;;17.83;;
6205;SDS011;3136;48.788;9.772;2024-02-28T02:43:05;30.60;;;18.07;;
6205;SDS011;3136;48.788;9.772;2024-02-28T02:45:31;30.67;;;17.73;;
6205;SDS011;3136;48.788;9.772;2024-02-28T02:47:56;29.47;;;17.97;;
6205;SDS011;3136;48.788;9.772;2024-02-28T02:50:22;30.40;;;18.13;;
6205;SDS011;3136;48.788;9.772;2024-02-28T02:52:47;32.40;;;17.93;;
6205;SDS011;3136;48.788;9.772;2024-02-28T02:55:13;30.40;;;18.80;;
6205;SDS011;3136;48.788;9.772;2024-02-28T02:57:40;30.20;;;18.17;;
6205;SDS011;3136;48.788;9.772;2024-02-28T03:00:07;31.03;;;17.93;;
6205;SDS011;3136;48.788;9.772;2024-02-28T03:02:34;31.40;;;19.10;;
6205;SDS011;3136;48.788;9.772;2024-02-28T03:04:59;33.83;;;18.90;;
6205;SDS011;3136;48.788;9.772;2024-02-28T03:07:25;29.40;;;18.67;;
6205;SDS011;3136;48.788;9.772;2024-02-28T03:09:50;30.13;;;17.63;;
6205;SDS011;3136;48.788;9.772;2024-02-28T03:12:16;30.17;;;19.33;;
6205;SDS011;3136;48.788;9.772;2024-02-28T03:14:42;31.90;;;17.50;;
6205;SDS011;3136;48.788;9.772;2024-02-28T03:17:07;29.67;;;18.30;;
6205;SDS011;3136;48.788;9.772;2024-02-28T03:19:33;30.93;;;17.70;;
6205;SDS011;3136;48.788;9.772;2024-02-28T03:22:00;32.77;;;18.20;;
6205;SDS011;3136;48.788;9.772;2024-02-28T03:24:26;29.93;;;17.40;;
6205;SDS011;3136;48.788;9.772;2024-02-28T03:26:51;29.87;;;18.27;;
6205;SDS011;3136;48.788;9.772;2024-02-28T03:29:17;28.83;;;17.60;;
6205;SDS011;3136;48.788;9.772;2024-02-28T03:31:42;28.40;;;17.33;;
6205;SDS011;3136;48.788;9.772;2024-02-28T03:34:08;27.90;;;17.27;;
6205;SDS011;3136;48.788;9.772;2024-02-28T03:36:35;33.70;;;16.93;;
6205;SDS011;3136;48.788;9.772;2024-02-28T03:39:00;28.50;;;16.73;;
6205;SDS011;3136;48.788;9.772;2024-02-28T03:41:26;29.50;;;17.50;;
6205;SDS011;3136;48.788;9.772;2024-02-28T03:43:51;27.17;;;16.90;;
6205;SDS011;3136;48.788;9.772;2024-02-28T03:46:17;28.30;;;18.00;;
6205;SDS011;3136;48.788;9.772;2024-02-28T03:48:42;31.90;;;17.23;;
6205;SDS011;3136;48.788;9.772;2024-02-28T03:51:08;26.97;;;17.27;;
6205;SDS011;3136;48.788;9.772;2024-02-28T03:53:33;29.90;;;18.00;;
6205;SDS011;3136;48.788;9.772;2024-02-28T03:55:59;28.43;;;17.10;;
6205;SDS011;3136;48.788;9.772;2024-02-28T03:58:25;29.73;;;17.37;;
6205;SDS011;3136;48.788;9.772;2024-02-28T04:00:50;29.63;;;17.67;;
6205;SDS011;3136;48.788;9.772;2024-02-28T04:03:16;27.37;;;17.00;;
6205;SDS011;3136;48.788;9.772;2024-02-28T04:05:41;27.77;;;16.73;;
6205;SDS011;3136;48.788;9.772;2024-02-28T04:08:07;31.83;;;18.13;;
6205;SDS011;3136;48.788;9.772;2024-02-28T04:10:33;28.33;;;17.30;;
6205;SDS011;3136;48.788;9.772;2024-02-28T04:12:58;27.13;;;17.17;;
6205;SDS011;3136;48.788;9.772;2024-02-28T04:15:24;25.97;;;16.97;;
6205;SDS011;3136;48.788;9.772;2024-02-28T04:17:51;29.60;;;17.00;;
6205;SDS011;3136;48.788;9.772;2024-02-28T04:20:16;34.43;;;18.00;;
6205;SDS011;3136;48.788;9.772;2024-02-28T04:22:42;30.60;;;17.53;;
6205;SDS011;3136;48.788;9.772;2024-02-28T04:25:08;29.50;;;17.03;;
6205;SDS011;3136;48.788;9.772;2024-02-28T04:27:35;29.53;;;17.50;;
6205;SDS011;3136;48.788;9.772;2024-02-28T04:30:01;31.33;;;17.77;;
6205;SDS011;3136;48.788;9.772;2024-02-28T04:32:27;29.47;;;17.83;;
6205;SDS011;3136;48.788;9.772;2024-02-28T04:34:52;26.10;;;16.90;;
6205;SDS011;3136;48.788;9.772;2024-02-28T04:37:18;28.37;;;17.07;;
6205;SDS011;3136;48.788;9.772;2024-02-28T04:39:43;30.80;;;17.73;;
6205;SDS011;3136;48.788;9.772;2024-02-28T04:42:09;28.23;;;17.80;;
6205;SDS011;3136;48.788;9.772;2024-02-28T04:44:35;27.63;;;16.77;;
6205;SDS011;3136;48.788;9.772;2024-02-28T04:47:01;33.00;;;18.33;;
6205;SDS011;3136;48.788;9.772;2024-02-28T04:49:26;31.67;;;18.67;;
6205;SDS011;3136;48.788;9.772;2024-02-28T04:51:52;32.03;;;18.60;;
6205;SDS011;3136;48.788;9.772;2024-02-28T04:54:17;29.03;;;17.50;;
6205;SDS011;3136;48.788;9.772;2024-02-28T04:56:43;32.27;;;18.83;;
6205;SDS011;3136;48.788;9.772;2024-02-28T04:59:11;29.43;;;17.77;;
6205;SDS011;3136;48.788;9.772;2024-02-28T05:01:37;32.80;;;19.00;;
6205;SDS011;3136;48.788;9.772;2024-02-28T05:04:07;30.67;;;18.70;;
6205;SDS011;3136;48.788;9.772;2024-02-28T05:06:33;36.33;;;20.93;;
6205;SDS011;3136;48.788;9.772;2024-02-28T05:08:59;36.30;;;20.37;;
6205;SDS011;3136;48.788;9.772;2024-02-28T05:11:25;33.83;;;20.50;;
6205;SDS011;3136;48.788;9.772;2024-02-28T05:13:50;46.03;;;23.10;;
6205;SDS011;3136;48.788;9.772;2024-02-28T05:16:16;40.30;;;22.03;;
6205;SDS011;3136;48.788;9.772;2024-02-28T05:18:43;38.60;;;21.63;;
6205;SDS011;3136;48.788;9.772;2024-02-28T05:21:09;39.00;;;23.03;;
6205;SDS011;3136;48.788;9.772;2024-02-28T05:23:35;39.27;;;22.03;;
6205;SDS011;3136;48.788;9.772;2024-02-28T05:26:01;42.33;;;24.07;;
6205;SDS011;3136;48.788;9.772;2024-02-28T05:28:32;41.27;;;22.70;;
6205;SDS011;3136;48.788;9.772;2024-02-28T05:30:59;37.53;;;21.97;;
6205;SDS011;3136;48.788;9.772;2024-02-28T05:33:27;38.70;;;22.53;;
6205;SDS011;3136;48.788;9.772;2024-02-28T05:35:53;36.93;;;21.57;;
6205;SDS011;3136;48.788;9.772;2024-02-28T05:38:19;37.93;;;21.57;;
6205;SDS011;3136;48.788;9.772;2024-02-28T05:40:44;40.23;;;22.03;;
6205;SDS011;3136;48.788;9.772;2024-02-28T05:43:10;35.50;;;21.10;;
6205;SDS011;3136;48.788;9.772;2024-02-28T05:45:35;34.57;;;20.10;;
6205;SDS011;3136;48.788;9.772;2024-02-28T05:48:01;33.57;;;19.87;;
6205;SDS011;3136;48.788;9.772;2024-02-28T05:50:26;36.53;;;20.30;;
6205;SDS011;3136;48.788;9.772;2024-02-28T05:52:52;38.07;;;20.90;;
6205;SDS011;3136;48.788;9.772;2024-02-28T05:55:18;35.43;;;20.67;;
6205;SDS011;3136;48.788;9.772;2024-02-28T05:57:43;34.47;;;20.90;;
6205;SDS011;3136;48.788;9.772;2024-02-28T06:00:09;37.73;;;20.87;;
6205;SDS011;3136;48.788;9.772;2024-02-28T06:02:38;35.30;;;20.70;;
6205;SDS011;3136;48.788;9.772;2024-02-28T06:05:03;39.50;;;22.60;;
6205;SDS011;3136;48.788;9.772;2024-02-28T06:07:30;36.40;;;21.03;;
6205;SDS011;3136;48.788;9.772;2024-02-28T06:09:55;37.63;;;20.60;;
6205;SDS011;3136;48.788;9.772;2024-02-28T06:12:21;39.43;;;21.73;;
6205;SDS011;3136;48.788;9.772;2024-02-28T06:14:46;34.77;;;20.83;;
6205;SDS011;3136;48.788;9.772;2024-02-28T06:17:12;40.70;;;21.73;;
6205;SDS011;3136;48.788;9.772;2024-02-28T06:19:38;34.17;;;20.70;;
6205;SDS011;3136;48.788;9.772;2024-02-28T06:22:04;37.83;;;20.50;;
6205;SDS011;3136;48.788;9.772;2024-02-28T06:24:29;33.50;;;19.67;;
6205;SDS011;3136;48.788;9.772;2024-02-28T06:26:55;33.23;;;19.47;;
6205;SDS011;3136;48.788;9.772;2024-02-28T06:29:20;35.73;;;19.23;;
6205;SDS011;3136;48.788;9.772;2024-02-28T06:31:50;30.53;;;18.20;;
6205;SDS011;3136;48.788;9.772;2024-02-28T06:34:16;32.83;;;18.90;;
6205;SDS011;3136;48.788;9.772;2024-02-28T06:36:43;28.17;;;16.87;;
6205;SDS011;3136;48.788;9.772;2024-02-28T06:39:09;30.13;;;18.43;;
6205;SDS011;3136;48.788;9.772;2024-02-28T06:41:34;32.07;;;18.23;;
6205;SDS011;3136;48.788;9.772;2024-02-28T06:44:00;33.53;;;18.90;;
6205;SDS011;3136;48.788;9.772;2024-02-28T06:46:26;31.60;;;17.97;;
6205;SDS011;3136;48.788;9.772;2024-02-28T06:48:51;33.70;;;19.07;;
6205;SDS011;3136;48.788;9.772;2024-02-28T06:51:17;31.13;;;18.47;;
6205;SDS011;3136;48.788;9.772;2024-02-28T06:53:43;32.23;;;17.63;;
6205;SDS011;3136;48.788;9.772;2024-02-28T06:56:08;32.57;;;17.93;;
6205;SDS011;3136;48.788;9.772;2024-02-28T06:58:34;29.03;;;17.57;;
6205;SDS011;3136;48.788;9.772;2024-02-28T07:00:59;30.03;;;18.07;;
6205;SDS011;3136;48.788;9.772;2024-02-28T07:03:25;32.73;;;18.47;;
6205;SDS011;3136;48.788;9.772;2024-02-28T07:05:51;30.20;;;18.30;;
6205;SDS011;3136;48.788;9.772;2024-02-28T07:08:18;34.27;;;19.30;;
6205;SDS011;3136;48.788;9.772;2024-02-28T07:10:43;31.67;;;18.73;;
6205;SDS011;3136;48.788;9.772;2024-02-28T07:13:12;30.90;;;17.60;;
6205;SDS011;3136;48.788;9.772;2024-02-28T07:15:38;33.07;;;18.23;;
6205;SDS011;3136;48.788;9.772;2024-02-28T07:18:05;30.57;;;18.20;;
6205;SDS011;3136;48.788;9.772;2024-02-28T07:23:06;33.60;;;19.00;;
6205;SDS011;3136;48.788;9.772;2024-02-28T07:25:31;30.63;;;18.23;;
6205;SDS011;3136;48.788;9.772;2024-02-28T07:27:57;32.10;;;18.07;;
6205;SDS011;3136;48.788;9.772;2024-02-28T07:30:27;30.37;;;18.27;;
6205;SDS011;3136;48.788;9.772;2024-02-28T07:32:53;31.33;;;17.40;;
6205;SDS011;3136;48.788;9.772;2024-02-28T07:35:18;27.17;;;16.50;;
6205;SDS011;3136;48.788;9.772;2024-02-28T07:37:45;27.50;;;16.67;;
6205;SDS011;3136;48.788;9.772;2024-02-28T07:40:11;29.33;;;18.00;;
6205;SDS011;3136;48.788;9.772;2024-02-28T07:42:37;30.87;;;17.83;;
6205;SDS011;3136;48.788;9.772;2024-02-28T07:45:03;30.13;;;17.63;;
6205;SDS011;3136;48.788;9.772;2024-02-28T07:47:29;30.33;;;17.27;;
6205;SDS011;3136;48.788;9.772;2024-02-28T07:49:56;29.93;;;17.57;;
6205;SDS011;3136;48.788;9.772;2024-02-28T07:52:21;29.20;;;17.60;;
6205;SDS011;3136;48.788;9.772;2024-02-28T07:54:47;32.33;;;17.10;;
6205;SDS011;3136;48.788;9.772;2024-02-28T07:57:13;29.17;;;17.17;;
6205;SDS011;3136;48.788;9.772;2024-02-28T07:59:40;30.33;;;17.20;;
6205;SDS011;3136;48.788;9.772;2024-02-28T08:02:07;32.60;;;17.57;;
6205;SDS011;3136;48.788;9.772;2024-02-28T08:04:32;29.00;;;17.23;;
6205;SDS011;3136;48.788;9.772;2024-02-28T08:06:59;31.57;;;17.83;;
6205;SDS011;3136;48.788;9.772;2024-02-28T08:09:25;30.57;;;17.30;;
6205;SDS011;3136;48.788;9.772;2024-02-28T08:11:50;31.90;;;18.10;;
6205;SDS011;3136;48.788;9.772;2024-02-28T08:14:16;29.47;;;17.73;;
6205;SDS011;3136;48.788;9.772;2024-02-28T08:16:42;30.17;;;17.30;;
6205;SDS011;3136;48.788;9.772;2024-02-28T08:19:08;28.00;;;17.33;;
6205;SDS011;3136;48.788;9.772;2024-02-28T08:21:33;25.87;;;16.10;;
6205;SDS011;3136;48.788;9.772;2024-02-28T08:23:59;28.97;;;17.57;;
6205;SDS011;3136;48.788;9.772;2024-02-28T08:26:24;27.70;;;16.43;;
6205;SDS011;3136;48.788;9.772;2024-02-28T08:28:50;29.13;;;17.47;;
6205;SDS011;3136;48.788;9.772;2024-02-28T08:31:15;31.97;;;17.73;;
6205;SDS011;3136;48.788;9.772;2024-02-28T08:33:41;29.70;;;17.37;;
6205;SDS011;3136;48.788;9.772;2024-02-28T08:36:07;30.80;;;17.23;;
6205;SDS011;3136;48.788;9.772;2024-02-28T08:38:32;27.33;;;17.57;;
6205;SDS011;3136;48.788;9.772;2024-02-28T08:40:59;29.83;;;17.37;;
6205;SDS011;3136;48.788;9.772;2024-02-28T08:43:25;32.83;;;17.60;;
6205;SDS011;3136;48.788;9.772;2024-02-28T08:45:50;29.17;;;17.40;;
6205;SDS011;3136;48.788;9.772;2024-02-28T08:48:16;30.23;;;17.87;;
6205;SDS011;3136;48.788;9.772;2024-02-28T08:50:42;31.37;;;17.97;;
6205;SDS011;3136;48.788;9.772;2024-02-28T08:53:07;30.67;;;17.80;;
6205;SDS011;3136;48.788;9.772;2024-02-28T08:55:33;34.93;;;18.70;;
6205;SDS011;3136;48.788;9.772;2024-02-28T08:57:58;34.17;;;18.87;;
6205;SDS011;3136;48.788;9.772;2024-02-28T09:00:24;34.47;;;19.23;;
6205;SDS011;3136;48.788;9.772;2024-02-28T09:02:50;31.30;;;18.07;;
6205;SDS011;3136;48.788;9.772;2024-02-28T09:05:15;32.87;;;18.40;;
6205;SDS011;3136;48.788;9.772;2024-02-28T09:07:41;35.73;;;18.57;;
6205;SDS011;3136;48.788;9.772;2024-02-28T09:10:07;30.67;;;18.10;;
6205;SDS011;3136;48.788;9.772;2024-02-28T09:12:33;34.63;;;17.73;;
6205;SDS011;3136;48.788;9.772;2024-02-28T09:14:58;35.70;;;19.00;;
6205;SDS011;3136;48.788;9.772;2024-02-28T09:17:24;32.97;;;18.53;;
6205;SDS011;3136;48.788;9.772;2024-02-28T09:19:50;37.80;;;18.77;;
6205;SDS011;3136;48.788;9.772;2024-02-28T09:22:17;32.53;;;17.97;;
6205;SDS011;3136;48.788;9.772;2024-02-28T09:24:43;30.90;;;17.23;;
6205;SDS011;3136;48.788;9.772;2024-02-28T09:27:09;34.77;;;17.83;;
6205;SDS011;3136;48.788;9.772;2024-02-28T09:29:34;34.03;;;16.90;;
6205;SDS011;3136;48.788;9.772;2024-02-28T09:32:00;28.30;;;16.50;;
6205;SDS011;3136;48.788;9.772;2024-02-28T09:34:26;29.07;;;16.27;;
6205;SDS011;3136;48.788;9.772;2024-02-28T09:36:51;33.23;;;16.90;;
6205;SDS011;3136;48.788;9.772;2024-02-28T09:39:17;32.80;;;17.50;;
6205;SDS011;3136;48.788;9.772;2024-02-28T09:41:42;32.53;;;16.90;;
6205;SDS011;3136;48.788;9.772;2024-02-28T09:44:08;29.60;;;17.13;;
6205;SDS011;3136;48.788;9.772;2024-02-28T09:46:34;30.47;;;16.80;;
6205;SDS011;3136;48.788;9.772;2024-02-28T09:49:04;30.10;;;16.80;;
6205;SDS011;3136;48.788;9.772;2024-02-28T09:51:33;28.20;;;15.03;;
6205;SDS011;3136;48.788;9.772;2024-02-28T09:54:00;27.37;;;15.73;;
6205;SDS011;3136;48.788;9.772;2024-02-28T09:56:29;29.80;;;16.17;;
6205;SDS011;3136;48.788;9.772;2024-02-28T09:58:55;26.67;;;15.17;;
6205;SDS011;3136;48.788;9.772;2024-02-28T10:01:22;28.03;;;15.20;;
6205;SDS011;3136;48.788;9.772;2024-02-28T10:03:51;24.63;;;14.60;;
6205;SDS011;3136;48.788;9.772;2024-02-28T10:06:18;24.00;;;13.63;;
6205;SDS011;3136;48.788;9.772;2024-02-28T10:08:44;24.77;;;14.53;;
6205;SDS011;3136;48.788;9.772;2024-02-28T10:11:16;24.40;;;14.50;;
6205;SDS011;3136;48.788;9.772;2024-02-28T10:13:43;28.53;;;15.03;;
6205;SDS011;3136;48.788;9.772;2024-02-28T10:16:08;22.53;;;13.83;;
6205;SDS011;3136;48.788;9.772;2024-02-28T10:18:34;25.70;;;14.73;;
6205;SDS011;3136;48.788;9.772;2024-02-28T10:20:59;25.53;;;14.20;;
6205;SDS011;3136;48.788;9.772;2024-02-28T10:23:25;26.07;;;14.40;;
6205;SDS011;3136;48.788;9.772;2024-02-28T10:25:52;25.10;;;13.57;;
6205;SDS011;3136;48.788;9.772;2024-02-28T10:28:17;23.23;;;13.20;;
6205;SDS011;3136;48.788;9.772;2024-02-28T10:30:43;23.93;;;13.43;;
6205;SDS011;3136;48.788;9.772;2024-02-28T10:33:10;25.67;;;14.13;;
6205;SDS011;3136;48.788;9.772;2024-02-28T10:35:42;23.70;;;13.60;;
6205;SDS011;3136;48.788;9.772;2024-02-28T10:38:11;23.40;;;14.17;;
6205;SDS011;3136;48.788;9.772;2024-02-28T10:40:41;24.00;;;14.73;;
6205;SDS011;3136;48.788;9.772;2024-02-28T10:43:10;25.63;;;15.10;;
6205;SDS011;3136;48.788;9.772;2024-02-28T10:45:36;23.80;;;13.63;;
6205;SDS011;3136;48.788;9.772;2024-02-28T10:48:05;22.27;;;14.00;;
6205;SDS011;3136;48.788;9.772;2024-02-28T10:50:32;22.43;;;13.37;;
6205;SDS011;3136;48.788;9.772;2024-02-28T10:53:02;25.70;;;14.43;;
6205;SDS011;3136;48.788;9.772;2024-02-28T10:55:34;25.03;;;14.20;;
6205;SDS011;3136;48.788;9.772;2024-02-28T10:58:08;24.00;;;13.77;;
6205;SDS011;3136;48.788;9.772;2024-02-28T11:00:41;22.53;;;13.80;;
6205;SDS011;3136;48.788;9.772;2024-02-28T11:03:11;20.33;;;12.83;;
6205;SDS011;3136;48.788;9.772;2024-02-28T11:05:42;20.60;;;12.87;;
6205;SDS011;3136;48.788;9.772;2024-02-28T11:08:11;21.07;;;12.73;;
6205;SDS011;3136;48.788;9.772;2024-02-28T11:10:47;22.00;;;13.00;;
6205;SDS011;3136;48.788;9.772;2024-02-28T11:13:22;21.80;;;13.03;;
6205;SDS011;3136;48.788;9.772;2024-02-28T11:15:49;24.50;;;14.20;;
6205;SDS011;3136;48.788;9.772;2024-02-28T11:18:15;23.07;;;13.97;;
6205;SDS011;3136;48.788;9.772;2024-02-28T11:20:41;23.67;;;14.17;;
6205;SDS011;3136;48.788;9.772;2024-02-28T11:23:09;19.50;;;12.47;;
6205;SDS011;3136;48.788;9.772;2024-02-28T11:25:35;21.03;;;12.53;;
6205;SDS011;3136;48.788;9.772;2024-02-28T11:28:01;21.40;;;13.60;;
6205;SDS011;3136;48.788;9.772;2024-02-28T11:30:26;20.47;;;13.63;;
6205;SDS011;3136;48.788;9.772;2024-02-28T11:32:52;22.63;;;13.57;;
6205;SDS011;3136;48.788;9.772;2024-02-28T11:35:19;20.47;;;12.67;;
6205;SDS011;3136;48.788;9.772;2024-02-28T11:37:45;20.73;;;12.93;;
6205;SDS011;3136;48.788;9.772;2024-02-28T11:40:14;20.90;;;12.50;;
6205;SDS011;3136;48.788;9.772;2024-02-28T11:42:40;19.73;;;13.23;;
6205;SDS011;3136;48.788;9.772;2024-02-28T11:45:05;19.40;;;11.80;;
6205;SDS011;3136;48.788;9.772;2024-02-28T11:47:34;19.50;;;11.67;;
6205;SDS011;3136;48.788;9.772;2024-02-28T11:50:01;18.37;;;11.37;;
6205;SDS011;3136;48.788;9.772;2024-02-28T11:52:29;18.27;;;11.50;;
6205;SDS011;3136;48.788;9.772;2024-02-28T11:54:55;18.33;;;11.63;;
6205;SDS011;3136;48.788;9.772;2024-02-28T11:57:21;15.97;;;10.97;;
6205;SDS011;3136;48.788;9.772;2024-02-28T11:59:47;16.95;;;11.75;;
6205;SDS011;3136;48.788;9.772;2024-02-28T12:02:13;19.43;;;12.00;;
6205;SDS011;3136;48.788;9.772;2024-02-28T12:04:43;16.50;;;10.27;;
6205;SDS011;3136;48.788;9.772;2024-02-28T12:07:15;20.40;;;12.17;;
6205;SDS011;3136;48.788;9.772;2024-02-28T12:09:40;16.83;;;11.23;;
6205;SDS011;3136;48.788;9.772;2024-02-28T12:12:06;16.30;;;11.13;;
6205;SDS011;3136;48.788;9.772;2024-02-28T12:14:35;17.90;;;11.43;;
6205;SDS011;3136;48.788;9.772;2024-02-28T12:17:01;15.30;;;10.50;;
6205;SDS011;3136;48.788;9.772;2024-02-28T12:19:28;18.07;;;11.43;;
6205;SDS011;3136;48.788;9.772;2024-02-28T12:21:53;19.30;;;12.00;;
6205;SDS011;3136;48.788;9.772;2024-02-28T12:24:19;23.57;;;12.20;;
6205;SDS011;3136;48.788;9.772;2024-02-28T12:26:45;15.93;;;10.47;;
6205;SDS011;3136;48.788;9.772;2024-02-28T12:29:11;15.93;;;11.30;;
6205;SDS011;3136;48.788;9.772;2024-02-28T12:31:36;15.43;;;10.97;;
6205;SDS011;3136;48.788;9.772;2024-02-28T12:34:02;16.03;;;10.77;;
6205;SDS011;3136;48.788;9.772;2024-02-28T12:36:30;15.40;;;10.93;;
6205;SDS011;3136;48.788;9.772;2024-02-28T12:38:57;17.57;;;10.73;;
6205;SDS011;3136;48.788;9.772;2024-02-28T12:41:24;14.90;;;10.30;;
6205;SDS011;3136;48.788;9.772;2024-02-28T12:43:50;18.40;;;11.40;;
6205;SDS011;3136;48.788;9.772;2024-02-28T12:46:16;16.47;;;11.07;;
6205;SDS011;3136;48.788;9.772;2024-02-28T12:48:41;19.37;;;11.53;;
6205;SDS011;3136;48.788;9.772;2024-02-28T12:51:08;17.10;;;11.17;;
6205;SDS011;3136;48.788;9.772;2024-02-28T12:53:35;17.90;;;11.33;;
6205;SDS011;3136;48.788;9.772;2024-02-28T12:56:01;17.00;;;11.80;;
6205;SDS011;3136;48.788;9.772;2024-02-28T12:58:26;17.70;;;11.97;;
6205;SDS011;3136;48.788;9.772;2024-02-28T13:00:52;16.83;;;11.33;;
6205;SDS011;3136;48.788;9.772;2024-02-28T13:03:18;19.67;;;11.33;;
6205;SDS011;3136;48.788;9.772;2024-02-28T13:05:44;18.73;;;11.03;;
6205;SDS011;3136;48.788;9.772;2024-02-28T13:08:10;19.00;;;12.00;;
6205;SDS011;3136;48.788;9.772;2024-02-28T13:10:36;17.90;;;10.63;;
6205;SDS011;3136;48.788;9.772;2024-02-28T13:13:05;16.43;;;11.23;;
6205;SDS011;3136;48.788;9.772;2024-02-28T13:15:32;18.53;;;11.10;;
6205;SDS011;3136;48.788;9.772;2024-02-28T13:17:57;15.97;;;11.37;;
6205;SDS011;3136;48.788;9.772;2024-02-28T13:20:23;14.90;;;10.47;;
6205;SDS011;3136;48.788;9.772;2024-02-28T13:22:49;15.80;;;10.60;;
6205;SDS011;3136;48.788;9.772;2024-02-28T13:25:16;18.03;;;11.00;;
6205;SDS011;3136;48.788;9.772;2024-02-28T13:27:44;17.00;;;11.17;;
6205;SDS011;3136;48.788;9.772;2024-02-28T13:30:10;17.00;;;11.20;;
6205;SDS011;3136;48.788;9.772;2024-02-28T13:32:36;16.50;;;11.33;;
6205;SDS011;3136;48.788;9.772;2024-02-28T13:35:01;16.13;;;10.80;;
6205;SDS011;3136;48.788;9.772;2024-02-28T13:37:28;16.97;;;11.40;;
6205;SDS011;3136;48.788;9.772;2024-02-28T13:39:53;16.83;;;11.03;;
6205;SDS011;3136;48.788;9.772;2024-02-28T13:42:19;15.87;;;10.53;;
6205;SDS011;3136;48.788;9.772;2024-02-28T13:44:45;15.73;;;11.00;;
6205;SDS011;3136;48.788;9.772;2024-02-28T13:47:11;16.07;;;10.57;;
6205;SDS011;3136;48.788;9.772;2024-02-28T13:49:38;18.80;;;11.73;;
6205;SDS011;3136;48.788;9.772;2024-02-28T13:52:04;16.70;;;11.07;;
6205;SDS011;3136;48.788;9.772;2024-02-28T13:54:30;17.50;;;11.40;;
6205;SDS011;3136;48.788;9.772;2024-02-28T13:56:56;18.10;;;12.53;;
6205;SDS011;3136;48.788;9.772;2024-02-28T13:59:22;18.70;;;11.37;;
6205;SDS011;3136;48.788;9.772;2024-02-28T14:01:48;20.03;;;11.83;;
6205;SDS011;3136;48.788;9.772;2024-02-28T14:04:14;18.07;;;12.03;;
6205;SDS011;3136;48.788;9.772;2024-02-28T14:06:40;20.03;;;12.23;;
6205;SDS011;3136;48.788;9.772;2024-02-28T14:09:07;20.50;;;13.10;;
6205;SDS011;3136;48.788;9.772;2024-02-28T14:11:34;18.30;;;11.87;;
6205;SDS011;3136;48.788;9.772;2024-02-28T14:13:59;18.03;;;10.97;;
6205;SDS011;3136;48.788;9.772;2024-02-28T14:16:25;16.83;;;11.30;;
6205;SDS011;3136;48.788;9.772;2024-02-28T14:18:51;16.57;;;11.80;;
6205;SDS011;3136;48.788;9.772;2024-02-28T14:21:17;17.73;;;11.93;;
6205;SDS011;3136;48.788;9.772;2024-02-28T14:23:44;15.00;;;10.63;;
6205;SDS011;3136;48.788;9.772;2024-02-28T14:26:10;16.53;;;11.07;;
6205;SDS011;3136;48.788;9.772;2024-02-28T14:28:36;17.10;;;10.93;;
6205;SDS011;3136;48.788;9.772;2024-02-28T14:31:02;17.43;;;11.43;;
6205;SDS011;3136;48.788;9.772;2024-02-28T14:33:27;16.67;;;11.37;;
6205;SDS011;3136;48.788;9.772;2024-02-28T14:35:54;18.33;;;11.53;;
6205;SDS011;3136;48.788;9.772;2024-02-28T14:38:19;19.23;;;12.20;;
6205;SDS011;3136;48.788;9.772;2024-02-28T14:40:45;18.77;;;12.47;;
6205;SDS011;3136;48.788;9.772;2024-02-28T14:43:10;19.47;;;12.77;;
6205;SDS011;3136;48.788;9.772;2024-02-28T14:45:36;21.17;;;13.47;;